Historique des mesures à Cassis (13260), France
Quotidien Résumé Mars 7, 2018 Unités:  Métrique    US   Métrique/US
« Précédent (Jour)
Suivant (Jour) »
Quotidien Hebdomadaire Mensuel Annuel Période au choix
  Maximum: Minimum: Moyenne:
Température: TemperatureC °C 8.1 °C 10.1 °C
Point de rosée: DewpointC °C 3.1 °C 3.9 °C
Humidité: Humidity % 55 % 62 %
Vitesse du vent: 0 km/h 2.9 km/h 16.1 km/h
Rafales: 0 km/h - -
Vent:- - West
Pression: PressurehPa hPa 995.1 hPa -
Précipitations: 0.0 mm    
Historical Graphs
 
 
Mesures pour : Mars 7, 2018
Heure Temperature Point de rosée Pression Vent Vitesse du vent Rafales Humidité Pluie (par heure) Conditions
TemperatureC °C DewpointC °C PressurehPa hPa Calm     Humidity % HourlyPrecipMM mm SoftwareType W/m2
00:12 10.1 °C 4.9 °C 995.1 hPa ENE 4.7 km/h 5.6 km/h 70 % 0.0 mm open2300-1.11 W/m2
01:12 10.4 °C 4.7 °C 995.1 hPa North 2.9 km/h 5.6 km/h 68 % 0.0 mm open2300-1.11 W/m2
02:12 9.8 °C 4.2 °C 995.1 hPa North 6.4 km/h 6.4 km/h 68 % 0.0 mm open2300-1.11 W/m2
03:12 9.3 °C 4.3 °C 995.1 hPa West 16.9 km/h 16.9 km/h 71 % 0.0 mm open2300-1.11 W/m2
04:12 8.9 °C 4.3 °C 995.5 hPa NNW 4.2 km/h 4.7 km/h 73 % 0.0 mm open2300-1.11 W/m2
05:12 8.7 °C 3.7 °C 996.2 hPa NW 10.9 km/h 10.9 km/h 71 % 0.0 mm open2300-1.11 W/m2
06:12 8.4 °C 3.4 °C 996.5 hPa NNW 7.6 km/h 8 km/h 71 % 0.0 mm open2300-1.11 W/m2
07:12 8.1 °C 3.2 °C 996.8 hPa NNW 6.4 km/h 6.9 km/h 71 % 0.0 mm open2300-1.11 W/m2
08:12 9.1 °C 3.4 °C 997.5 hPa NNW 21.6 km/h 38.3 km/h 68 % 0.0 mm open2300-1.11 W/m2
09:11 9.8 °C 3.5 °C 998.5 hPa NW 17.9 km/h 18.7 km/h 65 % 0.0 mm open2300-1.11 W/m2
10:12 9.9 °C 3.6 °C 998.9 hPa WNW 20.9 km/h 20.9 km/h 65 % 0.0 mm open2300-1.11 W/m2
11:11 10.8 °C 3.8 °C 999.2 hPa WNW 7.6 km/h 26.2 km/h 62 % 0.0 mm open2300-1.11 W/m2
12:12 12.4 °C 4.1 °C 999.9 hPa NNW 8.9 km/h 36 km/h 57 % 0.0 mm open2300-1.11 W/m2
13:12 12.6 °C 3.7 °C 999.9 hPa WNW 13.2 km/h 39.4 km/h 55 % 0.0 mm open2300-1.11 W/m2
14:12 12.5 °C 4.7 °C 1000.2 hPa West 18.7 km/h 54.4 km/h 59 % 0.0 mm open2300-1.11 W/m2
15:12 12.3 °C 4.8 °C 1000.6 hPa NNW 19.2 km/h 66.6 km/h 60 % 0.0 mm open2300-1.11 W/m2
16:12 12.1 °C 4.8 °C 1000.6 hPa NNW 29.5 km/h 64.7 km/h 61 % 0.0 mm open2300-1.11 W/m2
17:12 11.9 °C 4.8 °C 1001.2 hPa WNW 52 km/h 57.3 km/h 62 % 0.0 mm open2300-1.11 W/m2
18:12 11.5 °C 4.2 °C 1002.3 hPa WNW 51 km/h 51 km/h 61 % 0.0 mm open2300-1.11 W/m2
19:12 11.3 °C 4.0 °C 1003.6 hPa West 12.2 km/h 20.9 km/h 61 % 0.0 mm open2300-1.11 W/m2
20:12 10.9 °C 4.1 °C 1004.3 hPa WNW 31.4 km/h 36 km/h 63 % 0.0 mm open2300-1.11 W/m2
21:12 10.8 °C 4.4 °C 1005.0 hPa NW 7.6 km/h 22.5 km/h 65 % 0.0 mm open2300-1.11 W/m2
22:12 10.4 °C 3.6 °C 1005.6 hPa NNW 8.9 km/h 15 km/h 63 % 0.0 mm open2300-1.11 W/m2
23:12 9.6 °C 3.1 °C 1006.7 hPa West 20.3 km/h 22.5 km/h 64 % 0.0 mm open2300-1.11 W/m2
Observations météo à CASSIS
WU-History script by Weather Underground - 1 mb